sensor_id;sensor_type;location;lat;lon;timestamp;pressure;altitude;pressure_sealevel;temperature;humidity
58775;BME280;44545;47.480;19.024;2023-03-16T04:10:20;100341.59;;;1.31;67.43
58775;BME280;44545;47.480;19.024;2023-03-16T04:13:22;100341.59;;;1.31;67.43
58775;BME280;44545;47.480;19.024;2023-03-16T04:16:25;100345.19;;;0.76;69.40
58775;BME280;44545;47.480;19.024;2023-03-16T04:19:28;100354.44;;;0.65;70.18
58775;BME280;44545;47.480;19.024;2023-03-16T04:22:31;100347.94;;;0.69;69.88
58775;BME280;44545;47.480;19.024;2023-03-16T04:25:34;100353.72;;;0.67;70.12
58775;BME280;44545;47.480;19.024;2023-03-16T04:28:39;100363.09;;;0.57;71.32
58775;BME280;44545;47.480;19.024;2023-03-16T04:31:44;100366.44;;;0.56;71.21
58775;BME280;44545;47.480;19.024;2023-03-16T04:34:46;100370.97;;;0.59;71.41
58775;BME280;44545;47.480;19.024;2023-03-16T04:37:49;100369.63;;;0.54;71.11
58775;BME280;44545;47.480;19.024;2023-03-16T04:40:53;100377.16;;;0.52;71.54
58775;BME280;44545;47.480;19.024;2023-03-16T04:43:56;100374.56;;;0.61;70.98
58775;BME280;44545;47.480;19.024;2023-03-16T04:46:58;100377.03;;;0.51;71.24
58775;BME280;44545;47.480;19.024;2023-03-16T04:50:07;100379.91;;;0.45;71.10
58775;BME280;44545;47.480;19.024;2023-03-16T04:53:09;100374.69;;;0.35;72.04
58775;BME280;44545;47.480;19.024;2023-03-16T04:56:12;100385.22;;;0.38;72.28
58775;BME280;44545;47.480;19.024;2023-03-16T04:59:21;100388.84;;;0.40;71.87
58775;BME280;44545;47.480;19.024;2023-03-16T05:02:24;100392.00;;;0.46;71.12
58775;BME280;44545;47.480;19.024;2023-03-16T05:05:27;100394.16;;;0.60;70.91
58775;BME280;44545;47.480;19.024;2023-03-16T05:08:30;100396.37;;;0.75;69.08
58775;BME280;44545;47.480;19.024;2023-03-16T05:11:32;100401.66;;;0.76;69.30
58775;BME280;44545;47.480;19.024;2023-03-16T05:14:35;100406.91;;;0.78;69.52
58775;BME280;44545;47.480;19.024;2023-03-16T05:17:40;100405.03;;;0.94;68.70
58775;BME280;44545;47.480;19.024;2023-03-16T05:20:51;100409.19;;;1.02;68.47
58775;BME280;44545;47.480;19.024;2023-03-16T05:23:55;100408.88;;;1.27;66.86
58775;BME280;44545;47.480;19.024;2023-03-16T05:26:57;100413.25;;;1.47;65.74
58775;BME280;44545;47.480;19.024;2023-03-16T05:29:59;100411.81;;;1.69;65.19
58775;BME280;44545;47.480;19.024;2023-03-16T05:33:03;100420.25;;;2.06;63.26
58775;BME280;44545;47.480;19.024;2023-03-16T05:36:06;100416.59;;;2.23;62.99
58775;BME280;44545;47.480;19.024;2023-03-16T05:39:09;100415.78;;;2.64;61.99
58775;BME280;44545;47.480;19.024;2023-03-16T05:42:12;100411.81;;;2.98;59.56
58775;BME280;44545;47.480;19.024;2023-03-16T05:45:16;100416.34;;;3.21;58.86
58775;BME280;44545;47.480;19.024;2023-03-16T05:48:19;100418.00;;;3.41;57.73
58775;BME280;44545;47.480;19.024;2023-03-16T05:51:22;100415.50;;;3.73;57.00
58775;BME280;44545;47.480;19.024;2023-03-16T05:54:27;100418.66;;;3.91;55.55
58775;BME280;44545;47.480;19.024;2023-03-16T05:57:31;100411.97;;;4.47;54.87
58775;BME280;44545;47.480;19.024;2023-03-16T06:00:33;100423.63;;;4.64;53.83
58775;BME280;44545;47.480;19.024;2023-03-16T06:03:36;100416.37;;;4.48;52.89
58775;BME280;44545;47.480;19.024;2023-03-16T06:06:40;100427.13;;;5.44;51.11
58775;BME280;44545;47.480;19.024;2023-03-16T06:09:43;100418.34;;;7.48;46.56
58775;BME280;44545;47.480;19.024;2023-03-16T06:12:46;100416.91;;;8.60;42.50
58775;BME280;44545;47.480;19.024;2023-03-16T06:15:49;100418.34;;;9.41;41.32
58775;BME280;44545;47.480;19.024;2023-03-16T06:18:52;100424.28;;;9.38;39.81
58775;BME280;44545;47.480;19.024;2023-03-16T06:21:55;100422.00;;;10.18;38.31
58775;BME280;44545;47.480;19.024;2023-03-16T06:24:57;100428.00;;;10.63;36.58
58775;BME280;44545;47.480;19.024;2023-03-16T06:27:59;100444.03;;;11.37;35.93
58775;BME280;44545;47.480;19.024;2023-03-16T06:31:02;100442.00;;;11.31;35.18
58775;BME280;44545;47.480;19.024;2023-03-16T06:34:05;100439.12;;;11.93;34.13
58775;BME280;44545;47.480;19.024;2023-03-16T06:37:09;100448.94;;;13.28;30.85
58775;BME280;44545;47.480;19.024;2023-03-16T06:40:15;100449.78;;;12.52;32.30
58775;BME280;44545;47.480;19.024;2023-03-16T06:43:18;100457.34;;;12.64;31.53
58775;BME280;44545;47.480;19.024;2023-03-16T06:46:21;100456.09;;;12.75;31.22
58775;BME280;44545;47.480;19.024;2023-03-16T06:49:23;100453.00;;;12.64;31.29
58775;BME280;44545;47.480;19.024;2023-03-16T06:52:26;100450.87;;;13.93;29.29
58775;BME280;44545;47.480;19.024;2023-03-16T06:55:29;100465.91;;;14.18;29.09
58775;BME280;44545;47.480;19.024;2023-03-16T06:58:33;100469.66;;;14.68;28.54
58775;BME280;44545;47.480;19.024;2023-03-16T07:01:35;100475.00;;;14.05;28.73
58775;BME280;44545;47.480;19.024;2023-03-16T07:04:39;100477.84;;;13.91;28.90
58775;BME280;44545;47.480;19.024;2023-03-16T07:07:42;100479.56;;;14.32;27.60
58775;BME280;44545;47.480;19.024;2023-03-16T07:10:44;100487.50;;;13.32;29.92
58775;BME280;44545;47.480;19.024;2023-03-16T07:13:47;100498.47;;;10.96;33.32
58775;BME280;44545;47.480;19.024;2023-03-16T07:16:50;100497.97;;;10.87;34.46
58775;BME280;44545;47.480;19.024;2023-03-16T07:19:54;100502.06;;;11.82;32.67
58775;BME280;44545;47.480;19.024;2023-03-16T07:22:57;100511.94;;;11.20;32.48
58775;BME280;44545;47.480;19.024;2023-03-16T07:26:00;100513.03;;;10.76;34.08
58775;BME280;44545;47.480;19.024;2023-03-16T07:29:06;100515.03;;;11.30;33.19
58775;BME280;44545;47.480;19.024;2023-03-16T07:32:08;100517.53;;;11.61;32.36
58775;BME280;44545;47.480;19.024;2023-03-16T07:35:11;100527.22;;;10.98;33.44
58775;BME280;44545;47.480;19.024;2023-03-16T07:38:13;100531.19;;;10.91;33.79
58775;BME280;44545;47.480;19.024;2023-03-16T07:41:17;100529.88;;;10.67;34.38
58775;BME280;44545;47.480;19.024;2023-03-16T07:44:19;100532.59;;;10.24;34.96
58775;BME280;44545;47.480;19.024;2023-03-16T07:47:22;100526.22;;;11.27;32.86
58775;BME280;44545;47.480;19.024;2023-03-16T07:50:27;100534.19;;;11.46;32.59
58775;BME280;44545;47.480;19.024;2023-03-16T07:53:31;100524.75;;;12.51;31.51
58775;BME280;44545;47.480;19.024;2023-03-16T07:56:37;100520.66;;;14.11;29.72
58775;BME280;44545;47.480;19.024;2023-03-16T07:59:52;100521.72;;;15.25;28.05
58775;BME280;44545;47.480;19.024;2023-03-16T08:02:54;100536.72;;;13.78;29.64
58775;BME280;44545;47.480;19.024;2023-03-16T08:05:58;100528.50;;;14.96;27.85
58775;BME280;44545;47.480;19.024;2023-03-16T08:09:01;100528.13;;;14.43;28.03
58775;BME280;44545;47.480;19.024;2023-03-16T08:12:04;100533.16;;;13.37;29.73
58775;BME280;44545;47.480;19.024;2023-03-16T08:15:08;100541.34;;;13.07;29.85
58775;BME280;44545;47.480;19.024;2023-03-16T08:18:11;100551.00;;;11.68;31.94
58775;BME280;44545;47.480;19.024;2023-03-16T08:21:14;100555.66;;;11.74;32.23
58775;BME280;44545;47.480;19.024;2023-03-16T08:24:17;100566.34;;;11.95;32.11
58775;BME280;44545;47.480;19.024;2023-03-16T08:27:19;100564.78;;;10.39;33.89
58775;BME280;44545;47.480;19.024;2023-03-16T08:30:23;100567.28;;;9.50;36.52
58775;BME280;44545;47.480;19.024;2023-03-16T08:33:28;100573.75;;;8.87;37.09
58775;BME280;44545;47.480;19.024;2023-03-16T08:36:31;100562.06;;;8.80;37.44
58775;BME280;44545;47.480;19.024;2023-03-16T08:39:34;100572.97;;;9.16;37.82
58775;BME280;44545;47.480;19.024;2023-03-16T08:42:38;100569.37;;;9.27;37.75
58775;BME280;44545;47.480;19.024;2023-03-16T08:45:47;100562.97;;;9.22;37.00
58775;BME280;44545;47.480;19.024;2023-03-16T08:48:50;100559.22;;;9.60;36.33
58775;BME280;44545;47.480;19.024;2023-03-16T08:51:53;100565.34;;;10.33;35.65
58775;BME280;44545;47.480;19.024;2023-03-16T08:54:55;100570.00;;;10.54;34.62
58775;BME280;44545;47.480;19.024;2023-03-16T08:58:05;100563.47;;;10.77;34.62
58775;BME280;44545;47.480;19.024;2023-03-16T09:01:08;100571.12;;;11.05;33.47
58775;BME280;44545;47.480;19.024;2023-03-16T09:04:11;100567.13;;;12.10;32.33
58775;BME280;44545;47.480;19.024;2023-03-16T09:07:14;100568.50;;;13.85;30.08
58775;BME280;44545;47.480;19.024;2023-03-16T09:10:17;100557.19;;;13.86;29.82
58775;BME280;44545;47.480;19.024;2023-03-16T09:13:20;100559.78;;;14.27;29.43
58775;BME280;44545;47.480;19.024;2023-03-16T09:16:22;100560.28;;;15.26;28.43
58775;BME280;44545;47.480;19.024;2023-03-16T09:19:27;100566.19;;;14.76;28.27
58775;BME280;44545;47.480;19.024;2023-03-16T09:22:41;100577.06;;;14.22;28.71
58775;BME280;44545;47.480;19.024;2023-03-16T09:25:44;100589.94;;;12.30;31.50
58775;BME280;44545;47.480;19.024;2023-03-16T09:28:47;100578.59;;;11.63;33.30
58775;BME280;44545;47.480;19.024;2023-03-16T09:31:50;100571.88;;;13.44;29.00
58775;BME280;44545;47.480;19.024;2023-03-16T09:34:54;100577.47;;;14.31;28.24
58775;BME280;44545;47.480;19.024;2023-03-16T09:37:56;100581.28;;;13.58;28.36
58775;BME280;44545;47.480;19.024;2023-03-16T09:41:34;100576.59;;;13.90;28.67
58775;BME280;44545;47.480;19.024;2023-03-16T09:47:51;100565.97;;;17.16;24.31
58775;BME280;44545;47.480;19.024;2023-03-16T09:50:59;100577.28;;;16.32;25.84
58775;BME280;44545;47.480;19.024;2023-03-16T09:54:07;100578.47;;;17.81;24.42
58775;BME280;44545;47.480;19.024;2023-03-16T09:57:39;100581.75;;;18.05;24.60
58775;BME280;44545;47.480;19.024;2023-03-16T10:01:02;100566.63;;;20.86;20.40
58775;BME280;44545;47.480;19.024;2023-03-16T10:04:22;100573.78;;;21.51;19.58
58775;BME280;44545;47.480;19.024;2023-03-16T10:14:24;100573.72;;;23.36;17.33
58775;BME280;44545;47.480;19.024;2023-03-16T10:17:43;100573.63;;;23.18;16.38
58775;BME280;44545;47.480;19.024;2023-03-16T10:20:46;100565.22;;;24.48;14.95
58775;BME280;44545;47.480;19.024;2023-03-16T10:23:51;100577.16;;;23.15;16.50
58775;BME280;44545;47.480;19.024;2023-03-16T10:26:56;100577.09;;;26.33;13.62
58775;BME280;44545;47.480;19.024;2023-03-16T10:30:09;100574.41;;;28.65;11.61
58775;BME280;44545;47.480;19.024;2023-03-16T10:33:27;100564.94;;;28.93;11.31
58775;BME280;44545;47.480;19.024;2023-03-16T10:36:33;100573.31;;;26.65;12.71
58775;BME280;44545;47.480;19.024;2023-03-16T10:39:36;100578.75;;;28.15;11.66
58775;BME280;44545;47.480;19.024;2023-03-16T10:42:44;100575.28;;;30.78;9.88
58775;BME280;44545;47.480;19.024;2023-03-16T10:45:47;100575.09;;;28.78;10.36
58775;BME280;44545;47.480;19.024;2023-03-16T10:48:56;100568.84;;;30.50;9.33
58775;BME280;44545;47.480;19.024;2023-03-16T10:52:53;100569.63;;;30.91;8.91
58775;BME280;44545;47.480;19.024;2023-03-16T10:55:40;100566.91;;;31.23;8.79
58775;BME280;44545;47.480;19.024;2023-03-16T10:58:42;100569.09;;;31.43;8.98
58775;BME280;44545;47.480;19.024;2023-03-16T11:01:46;100573.47;;;28.69;9.93
58775;BME280;44545;47.480;19.024;2023-03-16T11:04:51;100575.87;;;27.62;11.43
58775;BME280;44545;47.480;19.024;2023-03-16T11:11:30;100562.81;;;30.40;8.87
58775;BME280;44545;47.480;19.024;2023-03-16T11:14:34;100556.00;;;29.41;9.29
58775;BME280;44545;47.480;19.024;2023-03-16T11:17:43;100559.03;;;32.64;7.89
58775;BME280;44545;47.480;19.024;2023-03-16T11:20:46;100558.13;;;32.09;8.39
58775;BME280;44545;47.480;19.024;2023-03-16T11:23:53;100559.50;;;30.64;8.89
58775;BME280;44545;47.480;19.024;2023-03-16T11:27:01;100557.03;;;29.35;9.35
58775;BME280;44545;47.480;19.024;2023-03-16T11:30:13;100558.47;;;27.97;10.24
58775;BME280;44545;47.480;19.024;2023-03-16T11:33:20;100551.53;;;30.22;9.04
58775;BME280;44545;47.480;19.024;2023-03-16T11:40:19;100536.19;;;29.47;9.41
58775;BME280;44545;47.480;19.024;2023-03-16T11:46:41;100529.34;;;33.14;7.33
58775;BME280;44545;47.480;19.024;2023-03-16T11:50:19;100538.94;;;28.46;9.70
58775;BME280;44545;47.480;19.024;2023-03-16T12:06:23;100555.00;;;14.17;20.67
58775;BME280;44545;47.480;19.024;2023-03-16T12:09:54;100562.44;;;13.28;21.69
58775;BME280;44545;47.480;19.024;2023-03-16T12:16:21;100554.56;;;12.37;24.38
58775;BME280;44545;47.480;19.024;2023-03-16T12:22:43;100561.78;;;12.43;22.08
58775;BME280;44545;47.480;19.024;2023-03-16T12:25:47;100556.38;;;11.87;21.65
58775;BME280;44545;47.480;19.024;2023-03-16T12:28:50;100551.53;;;12.11;22.21
58775;BME280;44545;47.480;19.024;2023-03-16T12:32:11;100547.09;;;12.45;22.71
58775;BME280;44545;47.480;19.024;2023-03-16T12:39:01;100548.34;;;12.35;21.59
58775;BME280;44545;47.480;19.024;2023-03-16T12:45:47;100548.69;;;12.07;20.07
58775;BME280;44545;47.480;19.024;2023-03-16T12:48:57;100546.13;;;11.90;20.18
58775;BME280;44545;47.480;19.024;2023-03-16T12:52:05;100556.47;;;11.89;18.97
58775;BME280;44545;47.480;19.024;2023-03-16T12:55:19;100549.50;;;12.06;20.02
58775;BME280;44545;47.480;19.024;2023-03-16T12:58:23;100552.19;;;12.07;19.37
58775;BME280;44545;47.480;19.024;2023-03-16T13:01:41;100543.41;;;11.73;19.10
58775;BME280;44545;47.480;19.024;2023-03-16T13:04:47;100548.78;;;11.59;21.00
58775;BME280;44545;47.480;19.024;2023-03-16T13:08:10;100552.37;;;11.61;22.69
58775;BME280;44545;47.480;19.024;2023-03-16T13:11:15;100547.91;;;11.59;22.74
58775;BME280;44545;47.480;19.024;2023-03-16T13:17:32;100545.22;;;11.41;23.25
58775;BME280;44545;47.480;19.024;2023-03-16T13:20:57;100541.06;;;11.61;22.15
58775;BME280;44545;47.480;19.024;2023-03-16T13:27:27;100541.28;;;11.98;22.12
58775;BME280;44545;47.480;19.024;2023-03-16T13:30:32;100546.66;;;12.01;23.03
58775;BME280;44545;47.480;19.024;2023-03-16T13:33:36;100545.13;;;11.56;21.26
58775;BME280;44545;47.480;19.024;2023-03-16T13:36:40;100540.75;;;11.22;21.59
58775;BME280;44545;47.480;19.024;2023-03-16T13:42:56;100550.13;;;10.87;23.33
58775;BME280;44545;47.480;19.024;2023-03-16T13:45:59;100560.59;;;11.03;22.74
58775;BME280;44545;47.480;19.024;2023-03-16T13:49:03;100544.72;;;11.15;23.64
58775;BME280;44545;47.480;19.024;2023-03-16T13:52:12;100544.50;;;11.27;24.41
58775;BME280;44545;47.480;19.024;2023-03-16T13:55:20;100544.12;;;11.04;23.21
58775;BME280;44545;47.480;19.024;2023-03-16T13:58:28;100540.62;;;11.04;23.84
58775;BME280;44545;47.480;19.024;2023-03-16T14:01:36;100542.84;;;11.13;21.75
58775;BME280;44545;47.480;19.024;2023-03-16T14:04:38;100546.91;;;11.07;22.11
58775;BME280;44545;47.480;19.024;2023-03-16T14:07:48;100538.72;;;10.85;23.67
58775;BME280;44545;47.480;19.024;2023-03-16T14:10:53;100546.38;;;10.51;23.45
58775;BME280;44545;47.480;19.024;2023-03-16T14:14:13;100552.03;;;10.44;23.67
58775;BME280;44545;47.480;19.024;2023-03-16T14:17:18;100548.16;;;10.52;24.54
58775;BME280;44545;47.480;19.024;2023-03-16T14:20:23;100541.66;;;10.60;23.74
58775;BME280;44545;47.480;19.024;2023-03-16T14:23:32;100544.91;;;10.56;22.12
58775;BME280;44545;47.480;19.024;2023-03-16T14:26:40;100551.53;;;10.66;22.44
58775;BME280;44545;47.480;19.024;2023-03-16T14:29:43;100560.62;;;10.57;22.81
58775;BME280;44545;47.480;19.024;2023-03-16T14:36:34;100560.38;;;10.23;21.78
58775;BME280;44545;47.480;19.024;2023-03-16T14:39:37;100563.75;;;10.07;23.53
58775;BME280;44545;47.480;19.024;2023-03-16T14:42:41;100559.56;;;10.09;23.51
58775;BME280;44545;47.480;19.024;2023-03-16T14:45:43;100562.44;;;10.14;23.93
58775;BME280;44545;47.480;19.024;2023-03-16T14:48:47;100567.03;;;10.03;23.50
58775;BME280;44545;47.480;19.024;2023-03-16T14:51:51;100566.97;;;9.73;24.51
58775;BME280;44545;47.480;19.024;2023-03-16T14:54:54;100580.00;;;9.73;24.35
58775;BME280;44545;47.480;19.024;2023-03-16T14:57:57;100583.75;;;9.64;25.26
58775;BME280;44545;47.480;19.024;2023-03-16T15:01:00;100576.50;;;9.73;24.72
58775;BME280;44545;47.480;19.024;2023-03-16T15:04:03;100574.78;;;9.73;24.47
58775;BME280;44545;47.480;19.024;2023-03-16T15:07:43;100579.09;;;9.73;24.02
58775;BME280;44545;47.480;19.024;2023-03-16T15:10:42;100568.16;;;9.79;22.83
58775;BME280;44545;47.480;19.024;2023-03-16T15:13:49;100573.22;;;9.90;23.04
58775;BME280;44545;47.480;19.024;2023-03-16T15:16:52;100576.56;;;9.74;23.71
58775;BME280;44545;47.480;19.024;2023-03-16T15:19:55;100578.09;;;9.71;25.79
58775;BME280;44545;47.480;19.024;2023-03-16T15:22:58;100576.78;;;9.77;24.27
58775;BME280;44545;47.480;19.024;2023-03-16T15:26:01;100575.25;;;9.81;24.01
58775;BME280;44545;47.480;19.024;2023-03-16T15:29:05;100583.50;;;9.74;23.17
58775;BME280;44545;47.480;19.024;2023-03-16T15:32:11;100580.00;;;9.73;24.67
58775;BME280;44545;47.480;19.024;2023-03-16T15:35:14;100586.63;;;9.68;25.12
58775;BME280;44545;47.480;19.024;2023-03-16T15:38:22;100587.34;;;9.38;24.51
58775;BME280;44545;47.480;19.024;2023-03-16T15:41:25;100586.47;;;9.24;25.28
58775;BME280;44545;47.480;19.024;2023-03-16T15:44:39;100592.91;;;9.16;25.74
58775;BME280;44545;47.480;19.024;2023-03-16T15:47:42;100601.94;;;9.07;25.58
58775;BME280;44545;47.480;19.024;2023-03-16T15:50:55;100607.06;;;8.93;25.50
58775;BME280;44545;47.480;19.024;2023-03-16T15:53:59;100609.03;;;8.83;25.88
58775;BME280;44545;47.480;19.024;2023-03-16T15:57:03;100619.47;;;8.70;25.94
58775;BME280;44545;47.480;19.024;2023-03-16T16:00:18;100617.56;;;8.54;25.48
58775;BME280;44545;47.480;19.024;2023-03-16T16:03:25;100623.66;;;8.55;26.20
58775;BME280;44545;47.480;19.024;2023-03-16T16:06:27;100624.66;;;8.43;26.85
58775;BME280;44545;47.480;19.024;2023-03-16T16:09:31;100621.00;;;8.28;26.61
58775;BME280;44545;47.480;19.024;2023-03-16T16:12:38;100628.75;;;8.15;26.99
58775;BME280;44545;47.480;19.024;2023-03-16T16:15:41;100631.62;;;8.06;27.37
58775;BME280;44545;47.480;19.024;2023-03-16T16:18:46;100637.47;;;7.90;27.64
58775;BME280;44545;47.480;19.024;2023-03-16T16:21:49;100643.94;;;7.84;28.07
